createdAt,value
2023-07-25T00:01:41.388Z,99089.00
2023-07-25T00:04:08.791Z,99095.00
2023-07-25T00:06:36.819Z,99093.00
2023-07-25T00:09:04.265Z,99091.00
2023-07-25T00:11:31.832Z,99096.00
2023-07-25T00:13:59.346Z,99085.00
2023-07-25T00:16:26.736Z,99082.00
2023-07-25T00:18:54.370Z,99096.00
2023-07-25T00:21:21.814Z,99084.00
2023-07-25T00:23:49.846Z,99091.00
2023-07-25T00:26:17.150Z,99093.00
2023-07-25T00:28:44.455Z,99098.00
2023-07-25T00:31:11.785Z,99096.00
2023-07-25T00:33:39.203Z,99111.00
2023-07-25T00:36:06.616Z,99108.00
2023-07-25T00:38:34.018Z,99102.00
2023-07-25T00:41:02.134Z,99098.00
2023-07-25T00:43:29.427Z,99097.00
2023-07-25T00:45:56.865Z,99097.00
2023-07-25T00:48:24.417Z,99104.00
2023-07-25T00:50:52.238Z,99098.00
2023-07-25T00:53:20.201Z,99106.00
2023-07-25T00:55:49.022Z,99109.00
2023-07-25T00:58:17.875Z,99098.00
2023-07-25T01:00:45.536Z,99103.00
2023-07-25T01:03:14.333Z,99102.00
2023-07-25T01:05:46.142Z,99100.00
2023-07-25T01:08:13.474Z,99115.00
2023-07-25T01:10:40.802Z,99108.00
2023-07-25T01:13:08.259Z,99107.00
2023-07-25T01:15:36.886Z,99114.00
2023-07-25T01:18:05.727Z,99115.00
2023-07-25T01:20:36.271Z,99120.00
2023-07-25T01:23:06.257Z,99118.00
2023-07-25T01:25:34.341Z,99121.00
2023-07-25T01:28:01.648Z,99122.00
2023-07-25T01:30:29.085Z,99131.00
2023-07-25T01:32:56.691Z,99119.00
2023-07-25T01:35:24.072Z,99118.00
2023-07-25T01:37:51.383Z,99118.00
2023-07-25T01:40:18.707Z,99125.00
2023-07-25T01:42:46.748Z,99117.00
2023-07-25T01:45:14.050Z,99125.00
2023-07-25T01:47:41.564Z,99120.00
2023-07-25T01:50:09.694Z,99133.00
2023-07-25T01:52:37.057Z,99131.00
2023-07-25T01:55:05.018Z,99121.00
2023-07-25T01:57:32.454Z,99121.00
2023-07-25T02:00:00.644Z,99121.00
2023-07-25T02:02:28.065Z,99124.00
2023-07-25T02:04:55.440Z,99122.00
2023-07-25T02:07:22.812Z,99114.00
2023-07-25T02:09:50.220Z,99116.00
2023-07-25T02:12:17.586Z,99115.00
2023-07-25T02:14:45.013Z,99123.00
2023-07-25T02:17:13.076Z,99119.00
2023-07-25T02:19:40.553Z,99121.00
2023-07-25T02:22:08.119Z,99124.00
2023-07-25T02:24:35.531Z,99120.00
2023-07-25T02:27:03.151Z,99129.00
2023-07-25T02:29:30.632Z,99127.00
2023-07-25T02:31:58.052Z,99130.00
2023-07-25T02:34:26.021Z,99128.00
2023-07-25T02:36:53.367Z,99132.00
2023-07-25T02:39:20.770Z,99131.00
2023-07-25T02:41:48.116Z,99124.00
2023-07-25T02:44:15.431Z,99124.00
2023-07-25T02:46:42.869Z,99127.00
2023-07-25T02:49:10.225Z,99117.00
2023-07-25T02:51:38.238Z,99116.00
2023-07-25T02:54:05.599Z,99110.00
2023-07-25T02:56:32.911Z,99117.00
2023-07-25T02:59:00.264Z,99119.00
2023-07-25T03:01:27.607Z,99114.00
2023-07-25T03:03:54.911Z,99117.00
2023-07-25T03:06:22.210Z,99125.00
2023-07-25T03:08:50.208Z,99107.00
2023-07-25T03:11:20.617Z,99116.00
2023-07-25T03:13:47.962Z,99113.00
2023-07-25T03:16:15.407Z,99116.00
2023-07-25T03:18:42.737Z,99113.00
2023-07-25T03:21:10.123Z,99118.00
2023-07-25T03:23:37.550Z,99114.00
2023-07-25T03:26:05.691Z,99124.00
2023-07-25T03:28:33.151Z,99128.00
2023-07-25T03:31:00.609Z,99129.00
2023-07-25T03:33:28.421Z,99137.00
2023-07-25T03:35:55.826Z,99141.00
2023-07-25T03:38:23.210Z,99131.00
2023-07-25T03:40:50.570Z,99134.00
2023-07-25T03:43:19.119Z,99133.00
2023-07-25T03:45:46.673Z,99133.00
2023-07-25T03:48:15.080Z,99125.00
2023-07-25T03:50:42.544Z,99136.00
2023-07-25T03:53:10.022Z,99128.00
2023-07-25T03:55:37.398Z,99133.00
2023-07-25T03:58:04.736Z,99135.00
2023-07-25T04:00:32.829Z,99131.00
2023-07-25T04:03:13.301Z,99136.00
2023-07-25T04:05:42.177Z,99135.00
2023-07-25T04:08:09.583Z,99129.00
2023-07-25T04:10:36.982Z,99124.00
2023-07-25T04:13:04.383Z,99122.00
2023-07-25T04:15:32.453Z,99115.00
2023-07-25T04:17:59.812Z,99098.00
2023-07-25T04:20:27.257Z,99096.00
2023-07-25T04:22:56.185Z,99096.00
2023-07-25T04:25:24.868Z,99096.00
2023-07-25T04:27:52.275Z,99093.00
2023-07-25T04:30:19.718Z,99094.00
2023-07-25T04:32:47.841Z,99102.00
2023-07-25T04:35:15.292Z,99103.00
2023-07-25T04:37:42.619Z,99109.00
2023-07-25T04:40:11.058Z,99104.00
2023-07-25T04:42:38.370Z,99113.00
2023-07-25T04:45:06.972Z,99119.00
2023-07-25T04:47:34.394Z,99147.00
2023-07-25T04:50:02.231Z,99162.00
2023-07-25T04:52:29.644Z,99161.00
2023-07-25T04:54:59.225Z,99149.00
2023-07-25T04:57:26.569Z,99136.00
2023-07-25T04:59:54.164Z,99131.00
2023-07-25T05:02:22.915Z,99140.00
2023-07-25T05:04:50.558Z,99148.00
2023-07-25T05:07:18.713Z,99156.00
2023-07-25T05:09:46.112Z,99140.00
2023-07-25T05:12:14.260Z,99147.00
2023-07-25T05:14:41.935Z,99152.00
2023-07-25T05:17:09.332Z,99164.00
2023-07-25T05:19:36.787Z,99164.00
2023-07-25T05:22:04.460Z,99163.00
2023-07-25T05:24:33.273Z,99176.00
2023-07-25T05:27:00.716Z,99177.00
2023-07-25T05:29:28.178Z,99173.00
2023-07-25T05:31:55.566Z,99174.00
2023-07-25T05:34:22.918Z,99185.00
2023-07-25T05:36:50.401Z,99170.00
2023-07-25T05:39:17.815Z,99185.00
2023-07-25T05:41:45.962Z,99183.00
2023-07-25T05:44:13.325Z,99189.00
2023-07-25T05:46:40.683Z,99190.00
2023-07-25T05:49:08.543Z,99178.00
2023-07-25T05:51:36.085Z,99193.00
2023-07-25T05:54:03.471Z,99200.00
2023-07-25T05:56:30.789Z,99199.00
2023-07-25T05:58:58.847Z,99188.00
2023-07-25T06:01:26.288Z,99190.00
2023-07-25T06:03:53.776Z,99192.00
2023-07-25T06:06:21.336Z,99200.00
2023-07-25T06:08:48.690Z,99217.00
2023-07-25T06:11:21.600Z,99218.00
2023-07-25T06:13:49.688Z,99221.00
2023-07-25T06:16:17.973Z,99211.00
2023-07-25T06:18:45.378Z,99215.00
2023-07-25T06:21:12.865Z,99215.00
2023-07-25T06:23:40.279Z,99215.00
2023-07-25T06:26:07.875Z,99207.00
2023-07-25T06:28:35.188Z,99217.00
2023-07-25T06:31:03.445Z,99207.00
2023-07-25T06:33:31.524Z,99198.00
2023-07-25T06:35:58.901Z,99192.00
2023-07-25T06:38:26.341Z,99179.00
2023-07-25T06:40:53.697Z,99177.00
2023-07-25T06:43:21.118Z,99181.00
2023-07-25T06:45:51.401Z,99187.00
2023-07-25T06:48:18.898Z,99189.00
2023-07-25T06:50:47.048Z,99187.00
2023-07-25T06:53:14.450Z,99180.00
2023-07-25T06:55:44.009Z,99167.00
2023-07-25T06:58:13.719Z,99174.00
2023-07-25T07:00:42.117Z,99165.00
2023-07-25T07:03:09.643Z,99164.00
2023-07-25T07:05:37.726Z,99159.00
2023-07-25T07:08:06.130Z,99151.00
2023-07-25T07:10:34.096Z,99146.00
2023-07-25T07:13:01.522Z,99147.00
2023-07-25T07:15:28.873Z,99129.00
2023-07-25T07:17:56.355Z,99129.00
2023-07-25T07:20:23.872Z,99136.00
2023-07-25T07:22:51.238Z,99121.00
2023-07-25T07:25:19.359Z,99128.00
2023-07-25T07:27:46.778Z,99127.00
2023-07-25T07:30:14.282Z,99120.00
2023-07-25T07:32:41.638Z,99134.00
2023-07-25T07:35:09.517Z,99131.00
2023-07-25T07:37:38.181Z,99131.00
2023-07-25T07:40:06.801Z,99135.00
2023-07-25T07:42:34.987Z,99127.00
2023-07-25T07:45:02.375Z,99136.00
2023-07-25T07:47:29.726Z,99128.00
2023-07-25T07:49:57.352Z,99133.00
2023-07-25T07:52:36.929Z,99125.00
2023-07-25T07:55:10.740Z,99124.00
2023-07-25T07:57:42.789Z,99142.00
2023-07-25T08:00:11.932Z,99137.00
2023-07-25T08:02:39.396Z,99140.00
2023-07-25T08:05:07.788Z,99137.00
2023-07-25T08:07:35.544Z,99144.00
2023-07-25T08:10:03.657Z,99134.00
2023-07-25T08:12:31.143Z,99129.00
2023-07-25T08:14:59.261Z,99132.00
2023-07-25T08:17:26.691Z,99140.00
2023-07-25T08:19:54.027Z,99133.00
2023-07-25T08:22:21.354Z,99141.00
2023-07-25T08:24:52.309Z,99147.00
2023-07-25T08:27:19.720Z,99147.00
2023-07-25T08:29:47.182Z,99147.00
2023-07-25T08:32:15.521Z,99144.00
2023-07-25T08:34:43.013Z,99145.00
2023-07-25T08:37:10.427Z,99145.00
2023-07-25T08:39:37.889Z,99142.00
2023-07-25T08:42:07.220Z,99147.00
2023-07-25T08:44:35.992Z,99148.00
2023-07-25T08:47:10.384Z,99150.00
2023-07-25T08:49:41.582Z,99159.00
2023-07-25T08:52:09.494Z,99159.00
2023-07-25T08:54:38.023Z,99157.00
2023-07-25T08:57:06.592Z,99156.00
2023-07-25T08:59:33.970Z,99150.00
2023-07-25T09:02:01.603Z,99157.00
2023-07-25T09:04:30.132Z,99168.00
2023-07-25T09:07:00.292Z,99166.00
2023-07-25T09:09:27.627Z,99160.00
2023-07-25T09:11:55.780Z,99166.00
2023-07-25T09:14:23.742Z,99160.00
2023-07-25T09:16:51.217Z,99158.00
2023-07-25T09:19:18.641Z,99169.00
2023-07-25T09:21:50.581Z,99174.00
2023-07-25T09:24:18.717Z,99166.00
2023-07-25T09:26:50.576Z,99170.00
2023-07-25T09:29:18.393Z,99170.00
2023-07-25T09:31:47.046Z,99157.00
2023-07-25T09:34:17.743Z,99157.00
2023-07-25T09:36:47.416Z,99148.00
2023-07-25T09:39:15.253Z,99157.00
2023-07-25T09:41:43.671Z,99156.00
2023-07-25T09:44:11.446Z,99157.00
2023-07-25T09:46:39.147Z,99147.00
2023-07-25T09:49:06.598Z,99153.00
2023-07-25T09:51:33.991Z,99150.00
2023-07-25T09:54:05.409Z,99141.00
2023-07-25T09:56:32.828Z,99138.00
2023-07-25T09:59:07.168Z,99134.00
2023-07-25T10:01:36.737Z,99130.00
2023-07-25T10:04:05.911Z,99126.00
2023-07-25T10:06:36.331Z,99126.00
2023-07-25T10:09:04.503Z,99123.00
2023-07-25T10:11:32.464Z,99119.00
2023-07-25T10:14:01.677Z,99124.00
2023-07-25T10:16:29.548Z,99111.00
2023-07-25T10:18:59.916Z,99117.00
2023-07-25T10:21:27.996Z,99121.00
2023-07-25T10:24:02.321Z,99114.00
2023-07-25T10:26:29.744Z,99114.00
2023-07-25T10:29:23.395Z,99107.00
2023-07-25T10:31:52.785Z,99109.00
2023-07-25T10:34:20.127Z,99114.00
2023-07-25T10:36:47.509Z,99105.00
2023-07-25T10:39:26.339Z,99105.00
2023-07-25T10:41:55.327Z,99106.00
2023-07-25T10:44:38.264Z,99105.00
2023-07-25T10:47:50.247Z,99104.00
2023-07-25T10:50:25.263Z,99114.00
2023-07-25T10:52:52.834Z,99100.00
2023-07-25T10:55:20.705Z,99108.00
2023-07-25T10:58:09.080Z,99116.00
2023-07-25T11:00:38.355Z,99111.00
2023-07-25T11:03:26.821Z,99112.00
2023-07-25T11:06:14.390Z,99106.00
2023-07-25T11:08:42.924Z,99103.00
2023-07-25T11:11:11.894Z,99100.00
2023-07-25T11:13:40.527Z,99100.00
2023-07-25T11:16:11.403Z,99095.00
2023-07-25T11:18:50.122Z,99090.00
2023-07-25T11:21:18.229Z,99093.00
2023-07-25T11:23:45.599Z,99090.00
2023-07-25T11:26:13.666Z,99087.00
2023-07-25T11:28:41.572Z,99089.00
2023-07-25T11:31:10.287Z,99083.00
2023-07-25T11:33:39.160Z,99080.00
2023-07-25T11:36:08.847Z,99085.00
2023-07-25T11:38:36.640Z,99073.00
2023-07-25T11:41:04.865Z,99073.00
2023-07-25T11:43:32.893Z,99073.00
2023-07-25T11:46:00.381Z,99074.00
2023-07-25T11:48:29.734Z,99072.00
2023-07-25T11:50:58.311Z,99069.00
2023-07-25T11:53:28.444Z,99066.00
2023-07-25T11:55:56.983Z,99064.00
2023-07-25T11:58:24.369Z,99059.00
2023-07-25T12:00:54.308Z,99061.00
2023-07-25T12:03:23.432Z,99052.00
2023-07-25T12:05:56.124Z,99048.00
2023-07-25T12:08:34.497Z,99058.00
2023-07-25T12:11:03.365Z,99055.00
2023-07-25T12:13:30.869Z,99048.00
2023-07-25T12:16:00.782Z,99048.00
2023-07-25T12:18:29.132Z,99061.00
2023-07-25T12:20:59.338Z,99063.00
2023-07-25T12:23:28.866Z,99055.00
2023-07-25T12:25:57.150Z,99068.00
2023-07-25T12:28:24.928Z,99055.00
2023-07-25T12:30:52.372Z,99067.00
2023-07-25T12:33:19.822Z,99077.00
2023-07-25T12:35:47.266Z,99075.00
2023-07-25T12:38:15.339Z,99070.00
2023-07-25T12:40:43.131Z,99065.00
2023-07-25T12:43:10.492Z,99068.00
2023-07-25T12:45:37.838Z,99067.00
2023-07-25T12:48:06.086Z,99073.00
2023-07-25T12:50:33.912Z,99073.00
2023-07-25T12:53:01.315Z,99066.00
2023-07-25T12:55:29.417Z,99075.00
2023-07-25T12:57:56.762Z,99071.00
2023-07-25T13:00:24.526Z,99074.00
2023-07-25T13:02:52.078Z,99063.00
2023-07-25T13:05:21.287Z,99069.00
2023-07-25T13:07:48.980Z,99074.00
2023-07-25T13:10:16.470Z,99060.00
2023-07-25T13:12:44.507Z,99061.00
2023-07-25T13:15:12.005Z,99065.00
2023-07-25T13:17:39.359Z,99067.00
2023-07-25T13:20:07.985Z,99073.00
2023-07-25T13:22:35.610Z,99070.00
2023-07-25T13:25:03.390Z,99075.00
2023-07-25T13:27:31.000Z,99080.00
2023-07-25T13:29:59.024Z,99087.00
2023-07-25T13:32:26.482Z,99075.00
2023-07-25T13:34:53.947Z,99076.00
2023-07-25T13:37:21.337Z,99076.00
2023-07-25T13:39:48.731Z,99074.00
2023-07-25T13:42:16.153Z,99067.00
2023-07-25T13:44:43.481Z,99064.00
2023-07-25T13:47:11.495Z,99069.00
2023-07-25T13:49:38.857Z,99074.00
2023-07-25T13:52:06.721Z,99073.00
2023-07-25T13:54:34.357Z,99076.00
2023-07-25T13:57:01.833Z,99082.00
2023-07-25T13:59:29.759Z,99081.00
2023-07-25T14:01:59.073Z,99081.00
2023-07-25T14:04:28.476Z,99086.00
2023-07-25T14:06:55.868Z,99087.00
2023-07-25T14:09:23.438Z,99087.00
2023-07-25T14:11:51.393Z,99089.00
2023-07-25T14:14:18.828Z,99091.00
2023-07-25T14:16:46.234Z,99086.00
2023-07-25T14:19:13.680Z,99080.00
2023-07-25T14:21:41.746Z,99091.00
2023-07-25T14:24:09.300Z,99081.00
2023-07-25T14:26:37.333Z,99084.00
2023-07-25T14:29:05.065Z,99085.00
2023-07-25T14:31:32.980Z,99082.00
2023-07-25T14:34:00.483Z,99083.00
2023-07-25T14:36:27.913Z,99091.00
2023-07-25T14:38:55.940Z,99096.00
2023-07-25T14:41:23.399Z,99090.00
2023-07-25T14:43:52.952Z,99094.00
2023-07-25T14:46:20.917Z,99095.00
2023-07-25T14:48:48.323Z,99090.00
2023-07-25T14:51:15.793Z,99094.00
2023-07-25T14:53:43.093Z,99094.00
2023-07-25T14:56:11.174Z,99096.00
2023-07-25T14:58:38.636Z,99100.00
2023-07-25T15:01:06.204Z,99102.00
2023-07-25T15:03:33.923Z,99102.00
2023-07-25T15:06:01.354Z,99102.00
2023-07-25T15:08:28.772Z,99096.00
2023-07-25T15:10:56.206Z,99101.00
2023-07-25T15:13:24.402Z,99095.00
2023-07-25T15:15:51.759Z,99093.00
2023-07-25T15:18:19.096Z,99089.00
2023-07-25T15:20:46.491Z,99090.00
2023-07-25T15:23:13.862Z,99094.00
2023-07-25T15:25:41.311Z,99096.00
2023-07-25T15:28:08.651Z,99098.00
2023-07-25T15:30:36.692Z,99095.00
2023-07-25T15:33:04.553Z,99098.00
2023-07-25T15:35:31.970Z,99095.00
2023-07-25T15:37:59.308Z,99103.00
2023-07-25T15:40:26.683Z,99101.00
2023-07-25T15:42:53.988Z,99102.00
2023-07-25T15:45:21.271Z,99097.00
2023-07-25T15:47:49.314Z,99101.00
2023-07-25T15:50:18.393Z,99104.00
2023-07-25T15:52:45.784Z,99104.00
2023-07-25T15:55:16.145Z,99104.00
2023-07-25T15:57:43.493Z,99096.00
2023-07-25T16:00:11.673Z,99096.00
2023-07-25T16:02:39.155Z,99090.00
2023-07-25T16:05:07.521Z,99087.00
2023-07-25T16:07:35.951Z,99078.00
2023-07-25T16:10:05.415Z,99081.00
2023-07-25T16:12:32.905Z,99070.00
2023-07-25T16:15:00.242Z,99083.00
2023-07-25T16:17:27.855Z,99077.00
2023-07-25T16:19:55.284Z,99087.00
2023-07-25T16:22:23.288Z,99090.00
2023-07-25T16:24:50.610Z,99086.00
2023-07-25T16:27:18.010Z,99086.00
2023-07-25T16:29:45.385Z,99094.00
2023-07-25T16:32:12.802Z,99084.00
2023-07-25T16:34:40.168Z,99090.00
2023-07-25T16:37:07.553Z,99090.00
2023-07-25T16:39:35.574Z,99087.00
2023-07-25T16:42:03.142Z,99091.00
2023-07-25T16:44:30.470Z,99083.00
2023-07-25T16:46:57.853Z,99089.00
2023-07-25T16:49:25.169Z,99086.00
2023-07-25T16:51:52.510Z,99089.00
2023-07-25T16:54:20.034Z,99085.00
2023-07-25T16:56:48.035Z,99092.00
2023-07-25T16:59:15.374Z,99099.00
2023-07-25T17:01:42.780Z,99101.00
2023-07-25T17:04:10.146Z,99098.00
2023-07-25T17:06:37.450Z,99096.00
2023-07-25T17:09:05.086Z,99095.00
2023-07-25T17:11:34.086Z,99092.00
2023-07-25T17:14:03.159Z,99093.00
2023-07-25T17:16:30.516Z,99097.00
2023-07-25T17:18:57.889Z,99109.00
2023-07-25T17:21:39.268Z,99105.00
2023-07-25T17:24:07.200Z,99103.00
2023-07-25T17:26:34.534Z,99103.00
2023-07-25T17:29:02.629Z,99102.00
2023-07-25T17:31:30.411Z,99104.00
2023-07-25T17:33:58.147Z,99099.00
2023-07-25T17:36:25.472Z,99102.00
2023-07-25T17:38:53.080Z,99109.00
2023-07-25T17:41:20.426Z,99111.00
2023-07-25T17:43:47.882Z,99103.00
2023-07-25T17:46:16.117Z,99106.00
2023-07-25T17:48:43.552Z,99101.00
2023-07-25T17:51:11.020Z,99107.00
2023-07-25T17:53:38.352Z,99103.00
2023-07-25T17:56:05.880Z,99112.00
2023-07-25T17:58:33.305Z,99113.00
2023-07-25T18:01:00.723Z,99108.00
2023-07-25T18:03:28.994Z,99110.00
2023-07-25T18:05:56.403Z,99120.00
2023-07-25T18:08:23.808Z,99128.00
2023-07-25T18:10:52.189Z,99130.00
2023-07-25T18:13:20.652Z,99140.00
2023-07-25T18:15:48.160Z,99138.00
2023-07-25T18:18:16.994Z,99146.00
2023-07-25T18:20:45.272Z,99147.00
2023-07-25T18:23:13.510Z,99158.00
2023-07-25T18:25:41.137Z,99159.00
2023-07-25T18:28:08.472Z,99161.00
2023-07-25T18:30:36.514Z,99171.00
2023-07-25T18:33:03.976Z,99168.00
2023-07-25T18:35:32.075Z,99163.00
2023-07-25T18:38:00.409Z,99167.00
2023-07-25T18:40:27.822Z,99173.00
2023-07-25T18:42:55.325Z,99182.00
2023-07-25T18:45:22.740Z,99183.00
2023-07-25T18:47:51.099Z,99176.00
2023-07-25T18:50:18.567Z,99191.00
2023-07-25T18:52:45.901Z,99185.00
2023-07-25T18:55:14.009Z,99193.00
2023-07-25T18:57:41.384Z,99195.00
2023-07-25T19:00:09.566Z,99199.00
2023-07-25T19:02:37.001Z,99203.00
2023-07-25T19:05:04.931Z,99207.00
2023-07-25T19:07:32.259Z,99208.00
2023-07-25T19:09:59.608Z,99201.00
2023-07-25T19:12:27.601Z,99212.00
2023-07-25T19:14:54.958Z,99215.00
2023-07-25T19:17:22.351Z,99220.00
2023-07-25T19:19:49.699Z,99223.00
2023-07-25T19:22:17.145Z,99227.00
2023-07-25T19:24:45.139Z,99228.00
2023-07-25T19:27:12.657Z,99227.00
2023-07-25T19:29:40.708Z,99242.00
2023-07-25T19:32:09.085Z,99248.00
2023-07-25T19:34:36.674Z,99242.00
2023-07-25T19:37:04.396Z,99253.00
2023-07-25T19:39:33.200Z,99243.00
2023-07-25T19:42:00.580Z,99252.00
2023-07-25T19:44:28.399Z,99257.00
2023-07-25T19:46:56.481Z,99264.00
2023-07-25T19:49:23.847Z,99262.00
2023-07-25T19:51:51.189Z,99262.00
2023-07-25T19:54:18.587Z,99265.00
2023-07-25T19:56:47.841Z,99277.00
2023-07-25T19:59:15.676Z,99281.00
2023-07-25T20:01:43.452Z,99285.00
2023-07-25T20:04:11.533Z,99289.00
2023-07-25T20:06:38.910Z,99290.00
2023-07-25T20:09:06.254Z,99299.00
2023-07-25T20:11:33.626Z,99290.00
2023-07-25T20:14:02.377Z,99289.00
2023-07-25T20:16:30.042Z,99299.00
2023-07-25T20:18:57.610Z,99297.00
2023-07-25T20:21:25.710Z,99295.00
2023-07-25T20:23:53.024Z,99296.00
2023-07-25T20:26:20.384Z,99304.00
2023-07-25T20:28:47.801Z,99296.00
2023-07-25T20:31:15.225Z,99308.00
2023-07-25T20:33:42.741Z,99297.00
2023-07-25T20:36:10.238Z,99310.00
2023-07-25T20:38:38.261Z,99313.00
2023-07-25T20:41:05.647Z,99314.00
2023-07-25T20:43:32.954Z,99320.00
2023-07-25T20:46:03.214Z,99320.00
2023-07-25T20:48:31.553Z,99330.00
2023-07-25T20:51:00.259Z,99333.00
2023-07-25T20:53:27.599Z,99336.00
2023-07-25T20:55:56.415Z,99333.00
2023-07-25T20:58:23.979Z,99338.00
2023-07-25T21:00:51.556Z,99340.00
2023-07-25T21:03:19.083Z,99345.00
2023-07-25T21:05:46.549Z,99348.00
2023-07-25T21:08:13.955Z,99343.00
2023-07-25T21:10:41.321Z,99348.00
2023-07-25T21:13:09.356Z,99343.00
2023-07-25T21:15:36.850Z,99345.00
2023-07-25T21:18:13.259Z,99357.00
2023-07-25T21:20:41.654Z,99368.00
2023-07-25T21:23:09.115Z,99366.00
2023-07-25T21:25:37.647Z,99363.00
2023-07-25T21:28:05.390Z,99360.00
2023-07-25T21:30:33.433Z,99361.00
2023-07-25T21:33:00.858Z,99368.00
2023-07-25T21:35:28.257Z,99368.00
2023-07-25T21:37:55.660Z,99367.00
2023-07-25T21:40:23.299Z,99368.00
2023-07-25T21:42:50.745Z,99369.00
2023-07-25T21:45:18.224Z,99376.00
2023-07-25T21:47:46.345Z,99378.00
2023-07-25T21:50:13.981Z,99379.00
2023-07-25T21:52:41.331Z,99381.00
2023-07-25T21:55:09.420Z,99385.00
2023-07-25T21:57:36.835Z,99390.00
2023-07-25T22:00:06.732Z,99383.00
2023-07-25T22:02:34.227Z,99385.00
2023-07-25T22:05:02.322Z,99389.00
2023-07-25T22:07:29.727Z,99396.00
2023-07-25T22:09:57.133Z,99399.00
2023-07-25T22:12:24.473Z,99405.00
2023-07-25T22:14:51.889Z,99409.00
2023-07-25T22:17:20.814Z,99404.00
2023-07-25T22:19:48.359Z,99396.00
2023-07-25T22:22:16.356Z,99395.00
2023-07-25T22:24:43.783Z,99417.00
2023-07-25T22:27:11.417Z,99401.00
2023-07-25T22:29:38.768Z,99411.00
2023-07-25T22:32:06.919Z,99415.00
2023-07-25T22:34:34.277Z,99415.00
2023-07-25T22:37:01.613Z,99415.00
2023-07-25T22:39:29.703Z,99414.00
2023-07-25T22:41:57.034Z,99408.00
2023-07-25T22:44:24.371Z,99412.00
2023-07-25T22:46:51.838Z,99420.00
2023-07-25T22:49:19.194Z,99418.00
2023-07-25T22:51:46.559Z,99427.00
2023-07-25T22:54:13.954Z,99423.00
2023-07-25T22:56:42.110Z,99422.00
2023-07-25T22:59:09.513Z,99425.00
2023-07-25T23:01:36.923Z,99426.00
2023-07-25T23:04:04.531Z,99422.00
2023-07-25T23:06:32.214Z,99423.00
2023-07-25T23:08:59.757Z,99429.00
2023-07-25T23:11:27.101Z,99427.00
2023-07-25T23:13:55.477Z,99429.00
2023-07-25T23:16:22.812Z,99432.00
2023-07-25T23:18:50.192Z,99432.00
2023-07-25T23:21:17.866Z,99437.00
2023-07-25T23:23:45.341Z,99435.00
2023-07-25T23:26:12.909Z,99438.00
2023-07-25T23:28:40.315Z,99436.00
2023-07-25T23:31:08.406Z,99439.00
2023-07-25T23:33:35.942Z,99437.00
2023-07-25T23:36:03.625Z,99446.00
2023-07-25T23:38:30.990Z,99442.00
2023-07-25T23:40:58.386Z,99442.00
2023-07-25T23:43:25.716Z,99443.00
2023-07-25T23:45:53.126Z,99451.00
2023-07-25T23:48:21.361Z,99446.00
2023-07-25T23:50:48.716Z,99452.00
2023-07-25T23:53:16.053Z,99444.00
2023-07-25T23:55:43.440Z,99439.00
2023-07-25T23:58:11.039Z,99445.00
